Location:  
MeteoStar


Sort by weather type Sort by elevation Sort by visibility Sort from west to east north Sort from north to south Alphabetically Sort from strongest wind speed Sort from lowest to highest pressure Sort from highest to lowest dew point temperature Sort coolest temperatures to warmest Sort warm temperatures to coolest
 Metric

Current Observations for United Kingdom sorted by wind speed

Cairngorm20:00ZNot Avail.21 207W 36 Gusting to 44 14084
Baltasound20:00ZClear37 3225982.4W 29 Gusting to 41 2549
Sule Skerry20:00ZNot Avail.41 3320990.9NW 27 Gusting to 43 3052
Scatsa / Shetland Island19:50ZClear39 3230983.2W 25 Gusting to 36 2872
Sumburgh Cape 19:50ZPartly Cloudy43 325986.1W 25 3316
Lerwick20:00ZClear40 2720984.5W 24 Gusting to 39 30269
Fair Isle20:00ZClear42 2620987W 23 Gusting to 39 32187
Crosby20:00ZNot Avail.46 36251003W 21 Gusting to 26 3826
Great Dun Fell20:00ZNot Avail.29 292.5W 20 Gusting to 36 162778
Isle Of Portland20:00ZNot Avail.52 39111006.2W 18 Gusting to 25 47173
Cranwell19:50ZPartly Cloudy43 36251003.2WSW 18 35219
Saint Catherines Point20:00ZNot Avail.53 44111006.5W 17 Gusting to 27 4852
Spadeadam20:00ZMist35 3541000.0WSW 17 25935
Lossiemouth19:50ZClear34 3230994.1WSW 17 2342
Spadeadam19:50ZMist36 364998.8WSW 17 261066
Blackpool Airport19:50ZLight Showers45 36101002.1WNW 17 3832
Saint Helena Island20:00ZNot Avail.61 57251018.2SE 16 611427
Leeming19:50ZClear41 34301000.2W 16 33131
Benbecula19:50ZPartly Cloudy41 3230998.1NW 16 3319
Ballypatrick Forest20:00ZClear35 33251001.2W 15 25511
Capel Curig20:00ZClear41 35201004.2WSW 15 33708
Saint Bees Head20:00ZNot Avail.39 37201001.9NW 15 Gusting to 27 31406
Glen Ogle20:00ZNot Avail.30 2930W 15 191850
Aultbea20:00ZNot Avail.42 3113996.4W 15 3436
Topcliffe Royal Air Force Base 19:50ZClear43 34201000.2W 15 3691
Scilly; Saint MaryS20:00ZNot Avail.50 41251006.5SSW 15 45101
Weybourne20:00ZNot Avail.45 38301003.7WSW 14 3968
Donna Nook20:00ZNot Avail.43 37251002.5SW 14 3626
Loftus Samos20:00ZNot Avail.37 34301000WSW 14 28190
Edinburgh Airport19:50ZNot Avail.37 3430998.2SW 14 28134
Drumalbin20:00ZNot Avail.35 3216999.4SW 13 26803
South Uist Range20:00ZNot Avail.41 3217998.2NNW 13 3432
Kinloss19:50ZPartly Cloudy34 3240995.1SSW 13 2522
Wick19:50ZShowers nearby36 3220992.2WSW 13 27127
Tees-Side19:50ZClear39 34301000.2WSW 13 31121
Fylingdales20:00ZNot Avail.36 3330WSW 12 28859
Loch Glascanoch20:00ZClear32 287996.5W 12 23869
Wainfleet19:50ZNot Avail.42 38181003.5SW 12 359
Linton-On-Ouse19:50ZClear41 36201000.1W 12 3452
Wittering19:50ZCloudy45 37301003.2SW 12 39275
Inverness / Dalcross19:50ZPartly Cloudy36 3230996.1SW 12 2829
Valley19:50ZPartly Cloudy45 32301004.1W 12 393
East Midlands19:50ZNot Avail.43 37301004.2SW 12 37308
London City Airport19:50ZClear50 3781006.1WSW 12 4516
Liverpool Airport 19:50ZClear43 3961003.2W 12 3785
Waddington19:50ZNot Avail.45 36201003.2WSW 11 39223
Leconfield19:50ZClear43 36201000.1W 11 3719
Norwich Weather Centre19:50ZNot Avail.46 41301004.1SW 11 4145
Aberdeen / Dyce19:50ZClear36 3030995.3WSW 11 28213
Kirkwall Airport19:50ZShowers nearby37 3025990.2W 11 2968
Lydd Airport 19:50ZClear50 43101007.1WSW 11 469
Luton Airport 19:50ZClear46 3961005.3WSW 11 41524
St Athan Royal Air Force Base19:50ZRain45 4351005.2SW 11 39164
Plymouth20:00ZNot Avail.50 3781006.7WSW 11 46164
Eglinton / Londonderr19:50ZPartly Cloudy39 36301001.1SW 11 3229
Holbeach20:00ZNot Avail.43 37201004.4SW 10 379
Aberporth20:00ZNot Avail.46 32101004.7WNW 10 41436
Leuchars19:50ZNot Avail.34 3030996.1W 10 2639
Tiree19:50ZClear37 3425999.1NW 10 3039
West Freugh20:00ZNot Avail.39 36251001.5W 10 3236
Isle Of Man / Ronaldsway Airport19:50ZClear43 32301002.1WNW 10 3755
Humberside19:50ZClear43 39101002.2SW 10 37101
Southend-On-Sea 19:50ZNot Avail.46 37101006.1SW 10 4149
Culdrose19:50ZCloudy48 39151006.2SW 10 44255
Belfast / Harbour19:50ZPartly Cloudy37 34301002.1S 10 3016
Cardinham20:00ZClear44 37201006.4WSW 9 39656
Langdon Bay20:00ZNot Avail.47 39161007.2W 9 43383
Shoeburyness20:00ZNot Avail.49 38121006.2WSW 9 456
Bingley20:00ZNot Avail.38 34251002.5WSW 9 32859
Marham19:50ZNot Avail.45 37121004.1SW 9 4075
Coningsby Royal Air Force Base19:50ZNot Avail.45 36251003.1WSW 9 4022
Manston20:00ZNot Avail.46 39111007.0SW 9 41180
Lakenheath Royal Air Force Base19:56ZMostly Cloudy45 45101004.7SW 9 4032
Tain Range20:00ZNot Avail.34 3325995.2WSW 9 2713
Newcastle 19:50ZClear37 3430999.3W 9 30265
London / Heathrow Airport19:50ZClear48 37101006.1WSW 9 4478
Guernsey Airport19:50ZLight Rain50 41121007.2W 9 46334
Belfast / Aldergrove Airport19:50ZClear36 34301002.3SW 9 29265
Little Rissington20:00ZNot Avail.42 41131005.2SW 8 37705
Aberdaron20:00ZNot Avail.44 33251005.2W 8 39311
Eskdalemuir20:00ZIce Pellets34 321.121001.0WSW 8 27793
Altnaharra20:00ZNot Avail.34 3030994W 8 27265
Northolt19:50ZMostly Cloudy48 39151006.1WSW 8 44124
Wattisham19:50ZNot Avail.45 37201005.2W 8 41285
Mildenhall Royal Air Force Base19:56ZMostly Cloudy46 46111005.0SW 8 4232
Stansted Airport19:50ZClear46 39301006.2SW 8 42347
Boulmer19:50ZMostly Cloudy37 3430998.2WSW 8 3175
Prestwick Airport19:50ZClear39 36301000.2W 8 3365
Leeds And Bradford19:50ZNot Avail.39 36201001.5WSW 8 33682
Farnborough19:50ZNot Avail.46 39151006.2WSW 8 42213
Biggin Hill 19:50ZNot Avail.46 3781006.3WSW 8 42600
Shoreham Airport20:00ZNot Avail.51 4381007W 8 486
Jersey Airport19:50ZLight Rain52 4681007.2SW 8 49275
Cardiff-Wales Airport19:50ZLight Rain45 4361005.2SW 8 41219
Manchester Airport19:50ZClear41 36301003.2WSW 8 36226
Glenanne20:00ZNot Avail.36 33251002.7W 7 30528
Castlederg20:00ZClear36 34301003.2WSW 7 30167
Thorney Island20:00ZNot Avail.51 42101006.5W 7 4813
Gravesend-Broadness20:00ZNot Avail.49 38161006.2SW 7 469
Bedford20:00ZNot Avail.44 40251005.4WSW 7 40278
Nottingham Weather Centre20:00ZNot Avail.43 36141004.0WSW 7 39383
Bridlington Mrsc20:00ZNot Avail.40 35301000.5WSW 7 3549
Charterhall20:00ZNot Avail.36 3330998.5WSW 7 30367
Prestwick Rnas20:00ZShowers nearby41 3530999.7WSW 7 3685
Inverbervie20:00ZNot Avail.34 2930996.0W 7 28439
Aboyne20:00ZNot Avail.33 2925996.5WNW 7 27459
Stornoway19:50ZShowers nearby37 3220996.1W 7 3229
Dundee / Riverside19:50ZClear36 3230997.1WNW 7 3013
Walney Island20:00ZNot Avail.42 38201002NW 7 3849
Boscombe Down19:50ZMostly Cloudy45 41301006.3WNW 7 41406
Kenley20:00ZNot Avail.46 37161006.7WSW 6 43557
Larkhill20:00ZNot Avail.44 4191006.5W 6 41433
Mumbles20:00ZNot Avail.47 36151005.9NW 6 44114
Shobdon20:00ZNot Avail.41 37171004.7W 6 37324
Lake Vyrnwy20:00ZNot Avail.37 33251004.2W 6 321181
Rhyl20:00ZNot Avail.42 34251003.9WSW 6 38252
Middle Wallop19:50ZMostly Cloudy46 41201006.2W 6 43298
Benson19:50ZMostly Cloudy46 39251005.2SSW 6 43206
Glasgow Airport19:50ZPartly Cloudy37 3230999.1WSW 6 3226
Shawbury19:50ZNot Avail.41 34251004.2W 6 37249
Hawarden19:50ZClear41 34201004.1W 6 3732
London / Gatwick Airport19:50ZNot Avail.48 3981006.2SW 6 45203
Bristol / Lulsgate 19:50ZLight Rain43 4161005.4S 6 39620
Birmingham / Airport19:50ZNot Avail.45 37301004.2SW 6 42324
Camborne20:00ZCloudy45 39121006.7WSW 5 42285
Liscombe20:00ZNot Avail.40 40181006.5SW 5 361141
High Wicombe Hqstc20:00ZNot Avail.45 39201006.2W 5 42669
Milford Haven20:00ZNot Avail.43 36151005.2N 5 40144
Pershore20:00ZNot Avail.45 37251005.5SSW 5 42104
Keswick20:00ZShowers39 36201001.7W 5 35265
Odiham19:50ZNot Avail.46 37131006.2SW 5 44403
Yeovilton19:50ZMostly Cloudy46 43121006.1WNW 5 4475
Portglenone20:00ZNot Avail.34 32201002S 4 30209
Lough Fea20:00ZNot Avail.34 32301003W 4 30738
Herstmonceux20:00ZNot Avail.49 4281007.2W 4 48170
Dunkeswell Aerodrome20:00ZClear42 39171006.5W 4 40826
Church Lawford20:00ZNot Avail.44 37251005.0WSW 4 42351
Warcop Range20:00ZMist36 352.51001.5N 4 33744
Bournemouth Airport19:50ZNot Avail.48 39121006.1WSW 4 4736
Lyneham20:00ZNot Avail.44 38251005.7SW 4 42475
Sennybridge20:00ZNot Avail.35 34201005.7SSE 3 351007
Trawscoed20:00ZNot Avail.38 35201004.7SE 3 38206
Redesdale20:00ZNot Avail.34 33301000SSE 3 34692
Dundrennan20:00ZClear36 35301001WNW 3 36374
Aviemore20:00ZLight Snow Showers33 287997.2SW 3 33721
Brize Norton19:50ZMostly Cloudy45 41201005.2WSW 3 45288
Machrihanish20:00ZNot Avail.37 34111000WNW 3 3742
Southampton / Weather Centre19:50ZClear48 36121006.1N 3 4829
Chivenor20:00ZClear45 43251006.2N 3 Gusting to 32 4526
Shap20:00ZNot Avail.36 30301001.7W 2 36816
Strathallan20:00ZNot Avail.34 3130998.0S 2 34114
Tulloch Bridge20:00ZNot Avail.33 3030999WNW 2 33777
Exeter Airport19:50ZClear46 39301006.1N 2 4698
Pembrey Sands19:50ZMostly Cloudy41 37201005.1N 1 419
Fairford Royal Air Force Base19:56ZMostly Cloudy44 41201005.7CALM44285

Atlantic
Tropical Watch